• Join FlightAware (Why Join?)
  • Login
  • US Flag 
06:31PM EDT


 

Airport Tracker/Info


-or-


 

Live Flight TrackerFlight Track Log ✈ UAL395 ✈ 09-May-2013 ✈ KLAS - KSFO

Flight Track Log - Related Links

Times and Time Zones

All times are in EDT time to prevent confusion due to time zone crossing. See the UAL395 flight status page for this flight to view local times or setup timezone preferences in your user account.

Time Position Orientation Groundspeed Altitude Reporting Facility
EDT Latitude Longitude Course Direction KTS MPH feet Rate Location/Type
02:52PM 36.0997 -115.1578 270° West 161 185 2,900  Level Los Angeles Center
02:53PM 36.1214 -115.1772 324° Northwest 166 191 4,100 1,500 Climbing Los Angeles Center
02:54PM 36.1169 -115.2092 260° West 204 235 4,800 1,740 Climbing Los Angeles Center
02:54PM 36.1117 -115.2522 261° West 232 267 5,900 2,460 Climbing Los Angeles Center
02:55PM 35.9069 -115.3853 207° Southwest  Level FlightAware Approximate
02:55PM 36.0986 -115.2922 248° West 248 285 7,400  Level Los Angeles Center
02:55PM 36.0622 -115.3136 205° Southwest 279 321 8,500 1,800 Climbing Los Angeles Center
02:56PM 35.8834 -115.5009 270° West  Level FlightAware Approximate
02:56PM 36.0242 -115.3328 202° Southwest 289 333 9,300  Level Los Angeles Center
02:56PM 35.9900 -115.3586 211° Southwest 297 342 10,700 1,920 Climbing Los Angeles Center
02:57PM 35.8833 -115.6345 270° West  Level FlightAware Approximate
02:57PM 35.9725 -115.4100 247° West 311 358 11,300  Level Los Angeles Center
02:57PM 35.9639 -115.4681 260° West 348 400 12,200 2,400 Climbing Los Angeles Center
02:58PM 35.8833 -115.7680 270° West  Level FlightAware Approximate
02:58PM 35.9553 -115.5322 261° West 348 400 13,800  Level Los Angeles Center
02:59PM 35.9361 -115.6764 261° West 375 432 16,300 2,100 Climbing Los Angeles Center
03:00PM 35.9169 -115.8106 260° West 395 455 18,200 1,920 Climbing Los Angeles Center
03:01PM 35.9044 -115.9569 264° West 399 459 20,300 1,680 Climbing Los Angeles Center
03:02PM 35.9761 -116.0617 310° West 400 460 21,800 1,680 Climbing Los Angeles Center
03:03PM 36.0661 -116.1656 317° Northwest 411 473 23,800 1,380 Climbing Los Angeles Center
03:04PM 36.1364 -116.2475 317° Northwest 408 470 24,700 1,260 Climbing Los Angeles Center
03:05PM 36.2425 -116.3700 317° Northwest 431 496 26,500 1,440 Climbing Los Angeles Center
03:06PM 36.3131 -116.4500 318° Northwest 431 496 27,700 1,500 Climbing Los Angeles Center
03:07PM 36.4183 -116.5753 316° Northwest 438 504 29,700 1,080 Climbing Los Angeles Center
03:08PM 36.5058 -116.6764 317° Northwest 433 498 30,000 120 Climbing Los Angeles Center
03:09PM 36.6058 -116.7794 320° Northwest 427 491 30,000  Level Los Angeles Center
03:10PM 36.7069 -116.8544 329° Northwest 423 487 30,000 -60 Level Los Angeles Center
03:11PM 36.8061 -116.9303 329° Northwest 418 481 29,900 180 Descending Los Angeles Center
03:12PM 36.9053 -117.0075 328° Northwest 418 481 30,400 720 Climbing Oakland Center
03:13PM 37.0089 -117.0881 328° Northwest 430 495 31,400 780 Climbing Oakland Center
03:14PM 37.0850 -117.2094 308° West 451 519 32,000 240 Climbing Oakland Center
03:15PM 37.1114 -117.3689 282° West 461 531 32,000  Level Oakland Center
03:16PM 37.1369 -117.5267 282° West 462 532 32,000  Level Oakland Center
03:17PM 37.1633 -117.6900 282° West 469 540 32,000  Level Oakland Center
03:18PM 37.1939 -117.8844 281° West 473 544 32,000  Level Oakland Center
03:19PM 37.2197 -118.0469 281° West 473 544 32,000  Level Oakland Center
03:20PM 37.2433 -118.2072 281° West 469 540 32,000  Level Oakland Center
03:21PM 37.2667 -118.3675 280° West 468 539 32,000 -60 Level Oakland Center
03:23PM 37.3142 -118.6833 281° West 472 543 31,900  Descending Oakland Center
03:24PM 37.3367 -118.8442 280° West 469 540 32,000  Climbing Oakland Center
03:26PM 37.3644 -119.0372 280° West 469 540 31,900 -60 Descending Oakland Center
03:27PM 37.3889 -119.2008 281° West 482 555 31,900  Level Oakland Center
03:28PM 37.4133 -119.3642 281° West 477 549 31,900  Level Oakland Center
03:29PM 37.4328 -119.5222 279° West 464 534 32,000  Climbing Oakland Center
03:30PM 37.4553 -119.6844 280° West 467 537 32,000 -120 Level Oakland Center
03:31PM 37.4775 -119.8442 280° West 464 534 31,800 -600 Descending Oakland Center
03:32PM 37.4983 -120.0039 279° West 462 532 30,800 -1,020 Descending Oakland Center
03:33PM 37.5217 -120.1639 280° West 463 533 29,800 -1,320 Descending Oakland Center
03:34PM 37.5481 -120.3508 280° West 453 521 28,200 -1,920 Descending Oakland Center
03:35PM 37.5667 -120.5000 279° West 456 525 26,200 -2,220 Descending Northern Cal TRACON
03:36PM 37.5833 -120.6333 279° West 443 510 24,300 -2,160 Descending Northern Cal TRACON
03:37PM 37.6000 -120.8000 277° West 423 487 21,900 -2,100 Descending Northern Cal TRACON
03:38PM 37.6167 -120.9333 279° West 409 471 19,900 -2,100 Descending Northern Cal TRACON
03:39PM 37.6167 -121.0500 270° West 419 482 18,000 -2,100 Descending Northern Cal TRACON
03:40PM 37.6000 -121.2000 262° West 401 461 16,000 -1,980 Descending Northern Cal TRACON
03:41PM 37.5833 -121.3333 261° West 393 452 14,100 -2,100 Descending Northern Cal TRACON
03:42PM 37.5667 -121.4500 260° West 375 432 11,800 -1,560 Descending Northern Cal TRACON
03:43PM 37.5500 -121.5833 261° West 340 391 11,000 -480 Descending Northern Cal TRACON
03:44PM 37.5333 -121.6833 258° West 282 325 10,900 -600 Descending Northern Cal TRACON
03:45PM 37.5000 -121.7667 243° Southwest 257 296 9,800 -1,200 Descending Northern Cal TRACON
03:46PM 37.4833 -121.8667 258° West 257 296 8,600 -1,140 Descending Northern Cal TRACON
03:47PM 37.5000 -121.9500 284° West 248 285 7,600 -1,140 Descending Northern Cal TRACON
03:48PM 37.5167 -122.0333 284° West 238 274 6,400 -1,080 Descending Northern Cal TRACON
03:49PM 37.5333 -122.1000 288° West 196 226 5,500 -1,140 Descending Northern Cal TRACON
03:50PM 37.5500 -122.1500 293° West 181 208 4,300 -1,620 Descending Northern Cal TRACON
03:50PM 37.5619 -122.1817 295° West 185 213 3,100 -1,980 Descending Oakland Center